createdAt,value
2018-09-17T00:00:49.825Z,15.30
2018-09-17T00:22:29.824Z,15.20
2018-09-17T00:27:33.885Z,15.10
2018-09-17T00:32:37.725Z,15.10
2018-09-17T00:37:57.387Z,15.00
2018-09-17T00:43:01.528Z,15.00
2018-09-17T00:48:05.409Z,14.90
2018-09-17T00:53:08.981Z,14.90
2018-09-17T00:58:31.379Z,14.90
2018-09-17T01:03:35.252Z,14.90
2018-09-17T01:08:57.496Z,14.80
2018-09-17T01:14:01.486Z,14.80
2018-09-17T01:24:40.733Z,14.80
2018-09-17T01:29:44.534Z,14.70
2018-09-17T01:34:48.545Z,14.70
2018-09-17T01:39:52.306Z,14.70
2018-09-17T01:44:56.106Z,14.60
2018-09-17T01:50:00.182Z,14.60
2018-09-17T01:55:04.267Z,14.60
2018-09-17T02:00:08.288Z,14.50
2018-09-17T02:05:12.015Z,14.50
2018-09-17T02:10:16.263Z,14.50
2018-09-17T02:15:20.679Z,14.50
2018-09-17T02:20:24.650Z,14.40
2018-09-17T02:25:28.391Z,14.40
2018-09-17T02:30:32.808Z,14.40
2018-09-17T02:35:37.308Z,14.40
2018-09-17T02:40:41.447Z,14.40
2018-09-17T02:45:46.161Z,14.30
2018-09-17T02:50:50.593Z,14.30
2018-09-17T02:55:54.700Z,14.30
2018-09-17T03:00:58.427Z,14.30
2018-09-17T03:06:02.974Z,14.30
2018-09-17T03:11:07.411Z,14.30
2018-09-17T03:16:11.857Z,14.30
2018-09-17T03:21:15.974Z,14.20
2018-09-17T03:26:20.391Z,14.20
2018-09-17T03:31:24.673Z,14.20
2018-09-17T03:42:20.814Z,14.20
2018-09-17T03:47:24.782Z,14.10
2018-09-17T03:52:28.467Z,14.10
2018-09-17T03:57:32.380Z,14.00
2018-09-17T04:02:49.352Z,14.00
2018-09-17T04:07:53.466Z,14.00
2018-09-17T04:12:57.223Z,14.00
2018-09-17T04:18:01.146Z,13.90
2018-09-17T04:23:04.922Z,13.90
2018-09-17T04:28:11.148Z,13.90
2018-09-17T04:33:15.063Z,13.90
2018-09-17T04:38:18.661Z,13.90
2018-09-17T04:43:22.769Z,13.90
2018-09-17T04:48:46.923Z,13.80
2018-09-17T04:53:50.982Z,13.80
2018-09-17T04:59:00.456Z,13.80
2018-09-17T05:04:04.336Z,13.70
2018-09-17T05:09:09.938Z,13.70
2018-09-17T05:14:13.839Z,13.70
2018-09-17T05:19:18.042Z,13.70
2018-09-17T05:24:21.640Z,13.70
2018-09-17T05:29:40.468Z,13.70
2018-09-17T05:34:44.489Z,13.60
2018-09-17T05:39:48.211Z,13.60
2018-09-17T05:44:52.653Z,13.60
2018-09-17T05:49:56.779Z,13.60
2018-09-17T05:55:00.821Z,13.70
2018-09-17T06:00:05.861Z,13.80
2018-09-17T06:05:09.592Z,13.90
2018-09-17T06:10:15.606Z,13.80
2018-09-17T06:15:19.568Z,13.80
2018-09-17T06:20:23.360Z,13.90
2018-09-17T06:25:27.244Z,13.90
2018-09-17T06:30:31.380Z,14.00
2018-09-17T06:35:35.399Z,14.00
2018-09-17T06:40:39.091Z,14.00
2018-09-17T06:45:43.126Z,14.10
2018-09-17T06:50:47.612Z,14.20
2018-09-17T06:55:51.263Z,14.20
2018-09-17T07:00:55.305Z,14.30
2018-09-17T07:05:59.392Z,14.40
2018-09-17T07:11:03.815Z,14.40
2018-09-17T07:16:08.329Z,14.50
2018-09-17T07:21:13.040Z,14.60
2018-09-17T07:26:27.508Z,14.70
2018-09-17T07:31:34.797Z,14.80
2018-09-17T07:36:38.815Z,14.90
2018-09-17T07:41:42.557Z,15.10
2018-09-17T07:46:46.147Z,15.20
2018-09-17T07:51:50.148Z,15.40
2018-09-17T07:56:54.179Z,15.70
2018-09-17T08:01:57.838Z,16.00
2018-09-17T08:07:01.580Z,16.20
2018-09-17T08:12:05.374Z,16.50
2018-09-17T08:17:09.687Z,16.70
2018-09-17T08:22:13.321Z,16.90
2018-09-17T08:27:16.881Z,17.10
2018-09-17T08:32:20.992Z,17.30
2018-09-17T08:37:24.899Z,17.50
2018-09-17T08:42:29.011Z,17.70
2018-09-17T08:47:32.830Z,17.90
2018-09-17T08:52:37.038Z,18.00
2018-09-17T08:57:44.842Z,18.20
2018-09-17T09:03:55.952Z,18.30
2018-09-17T09:09:00.216Z,18.40
2018-09-17T09:14:07.357Z,18.60
2018-09-17T09:19:17.429Z,18.70
2018-09-17T09:24:21.362Z,18.90
2018-09-17T09:29:25.441Z,19.10
2018-09-17T09:34:30.040Z,19.30
2018-09-17T09:39:50.431Z,19.40
2018-09-17T09:44:54.531Z,19.50
2018-09-17T09:49:58.716Z,19.70
2018-09-17T09:55:02.918Z,19.80
2018-09-17T10:00:12.397Z,20.00
2018-09-17T10:05:17.158Z,20.10
2018-09-17T10:10:26.344Z,20.20
2018-09-17T10:15:40.132Z,20.40
2018-09-17T10:20:43.992Z,20.50
2018-09-17T10:25:48.136Z,20.60
2018-09-17T10:30:52.156Z,20.80
2018-09-17T10:35:55.741Z,20.90
2018-09-17T10:41:00.083Z,21.10
2018-09-17T10:46:04.072Z,21.20
2018-09-17T10:51:07.734Z,21.30
2018-09-17T10:56:11.612Z,21.50
2018-09-17T11:01:15.919Z,21.70
2018-09-17T11:06:19.573Z,21.90
2018-09-17T11:11:23.979Z,22.00
2018-09-17T11:16:28.119Z,22.20
2018-09-17T11:21:32.142Z,22.40
2018-09-17T11:26:36.665Z,22.50
2018-09-17T11:31:40.904Z,22.70
2018-09-17T11:37:08.556Z,22.80
2018-09-17T11:42:12.411Z,22.90
2018-09-17T11:47:16.880Z,23.10
2018-09-17T11:52:21.318Z,23.30
2018-09-17T11:57:25.132Z,23.50
2018-09-17T12:02:43.859Z,23.60
2018-09-17T12:07:47.878Z,23.80
2018-09-17T12:12:51.869Z,24.00
2018-09-17T12:18:18.679Z,24.10
2018-09-17T12:23:23.111Z,24.30
2018-09-17T12:28:31.659Z,24.50
2018-09-17T12:33:36.208Z,24.60
2018-09-17T12:38:51.312Z,24.60
2018-09-17T12:43:55.683Z,24.60
2018-09-17T12:49:00.933Z,24.70
2018-09-17T12:54:04.721Z,24.80
2018-09-17T12:59:16.115Z,24.80
2018-09-17T13:04:19.889Z,25.00
2018-09-17T13:09:25.114Z,25.10
2018-09-17T13:14:28.929Z,25.20
2018-09-17T13:19:42.543Z,25.30
2018-09-17T13:24:46.683Z,25.30
2018-09-17T13:29:50.548Z,25.30
2018-09-17T13:34:54.759Z,25.30
2018-09-17T13:39:58.462Z,25.40
2018-09-17T13:45:02.619Z,25.50
2018-09-17T13:50:06.931Z,25.60
2018-09-17T13:55:10.494Z,25.70
2018-09-17T14:00:14.395Z,25.80
2018-09-17T14:05:18.245Z,25.90
2018-09-17T14:10:22.514Z,26.10
2018-09-17T14:15:26.339Z,26.20
2018-09-17T14:20:30.076Z,26.30
2018-09-17T14:25:33.956Z,26.40
2018-09-17T14:30:37.965Z,26.60
2018-09-17T14:35:45.670Z,26.70
2018-09-17T14:40:49.696Z,26.80
2018-09-17T14:45:53.544Z,26.90
2018-09-17T14:50:58.332Z,26.90
2018-09-17T14:56:02.208Z,27.00
2018-09-17T15:01:06.341Z,27.10
2018-09-17T15:06:10.901Z,27.10
2018-09-17T15:11:14.604Z,27.10
2018-09-17T15:16:18.451Z,27.20
2018-09-17T15:21:22.823Z,27.30
2018-09-17T15:26:27.033Z,27.30
2018-09-17T15:31:31.512Z,27.30
2018-09-17T15:36:35.462Z,27.20
2018-09-17T15:41:39.618Z,27.20
2018-09-17T15:46:43.694Z,27.00
2018-09-17T15:51:49.689Z,26.90
2018-09-17T15:56:53.690Z,26.70
2018-09-17T16:01:57.493Z,26.50
2018-09-17T16:07:01.561Z,26.30
2018-09-17T16:12:05.262Z,26.10
2018-09-17T16:17:09.214Z,26.00
2018-09-17T16:22:13.000Z,25.80
2018-09-17T16:27:17.256Z,25.60
2018-09-17T16:32:21.469Z,25.40
2018-09-17T16:37:25.392Z,25.20
2018-09-17T16:42:29.445Z,25.00
2018-09-17T16:47:36.722Z,24.80
2018-09-17T16:52:40.527Z,24.60
2018-09-17T16:57:44.353Z,24.40
2018-09-17T17:02:48.220Z,24.20
2018-09-17T17:07:52.607Z,24.00
2018-09-17T17:12:56.800Z,23.80
2018-09-17T17:18:00.891Z,23.70
2018-09-17T17:23:04.663Z,23.50
2018-09-17T17:28:08.803Z,23.30
2018-09-17T17:33:13.287Z,23.10
2018-09-17T17:38:21.604Z,22.90
2018-09-17T17:43:25.620Z,22.70
2018-09-17T17:48:29.922Z,22.50
2018-09-17T17:53:33.914Z,22.30
2018-09-17T17:58:37.642Z,22.20
2018-09-17T18:03:41.808Z,22.00
2018-09-17T18:08:53.456Z,21.80
2018-09-17T18:13:57.140Z,21.60
2018-09-17T18:19:13.325Z,21.50
2018-09-17T18:24:17.036Z,21.30
2018-09-17T18:29:34.511Z,21.10
2018-09-17T18:34:38.180Z,21.00
2018-09-17T18:39:42.682Z,20.80
2018-09-17T18:44:46.802Z,20.70
2018-09-17T18:49:50.589Z,20.60
2018-09-17T18:54:54.601Z,20.40
2018-09-17T18:59:58.506Z,20.30
2018-09-17T19:05:02.285Z,20.20
2018-09-17T19:10:06.187Z,20.10
2018-09-17T19:15:15.204Z,20.00
2018-09-17T19:20:19.098Z,19.90
2018-09-17T19:25:22.715Z,19.80
2018-09-17T19:30:26.419Z,19.70
2018-09-17T19:35:30.404Z,19.50
2018-09-17T19:40:34.535Z,19.40
2018-09-17T19:45:43.754Z,19.30
2018-09-17T19:50:52.754Z,19.20
2018-09-17T19:55:56.778Z,19.10
2018-09-17T20:01:00.676Z,19.00
2018-09-17T20:06:24.974Z,18.90
2018-09-17T20:11:28.896Z,18.80
2018-09-17T20:16:32.741Z,18.70
2018-09-17T20:21:36.567Z,18.60
2018-09-17T20:26:40.515Z,18.60
2018-09-17T20:31:44.281Z,18.50
2018-09-17T20:36:48.203Z,18.40
2018-09-17T20:41:51.968Z,18.40
2018-09-17T20:46:55.881Z,18.40
2018-09-17T20:51:59.838Z,18.30
2018-09-17T20:57:03.838Z,18.20
2018-09-17T21:02:07.741Z,18.10
2018-09-17T21:07:11.729Z,18.10
2018-09-17T21:12:15.719Z,18.00
2018-09-17T21:17:19.572Z,18.00
2018-09-17T21:22:23.398Z,17.90
2018-09-17T21:27:27.446Z,17.90
2018-09-17T21:32:31.168Z,17.80
2018-09-17T21:37:34.954Z,17.80
2018-09-17T21:42:38.843Z,17.70
2018-09-17T21:47:42.800Z,17.70
2018-09-17T21:52:46.608Z,17.60
2018-09-17T21:57:50.135Z,17.50
2018-09-17T22:02:54.199Z,17.50
2018-09-17T22:07:58.258Z,17.40
2018-09-17T22:13:02.255Z,17.30
2018-09-17T22:18:06.317Z,17.30
2018-09-17T22:23:10.255Z,17.20
2018-09-17T22:28:14.356Z,17.20
2018-09-17T22:33:18.145Z,17.10
2018-09-17T22:38:22.012Z,17.10
2018-09-17T22:43:25.931Z,17.00
2018-09-17T22:48:41.424Z,17.00
2018-09-17T22:53:45.185Z,17.00
2018-09-17T23:04:36.004Z,16.90
2018-09-17T23:09:40.388Z,16.80
2018-09-17T23:14:44.320Z,16.80
2018-09-17T23:19:48.551Z,16.70
2018-09-17T23:24:52.292Z,16.70
2018-09-17T23:29:56.240Z,16.70
2018-09-17T23:35:00.193Z,16.60
2018-09-17T23:40:05.182Z,16.60
2018-09-17T23:45:08.945Z,16.50
2018-09-17T23:50:12.767Z,16.50
2018-09-17T23:55:16.730Z,16.40
